Portada
METAR-TAF:

METAR-TAF

Aeroports :

Tirupati, Índia

latitud: 13-38-16N, longitud: 79-32-50E, altitud: 107 m

Observació

L'informe es va fer fa 25 minuts, a les 07:30 UTC
Vent calma
Temperatura 35°C
Humitat 47%
Pressió 1008 hPa
Visibilitat: 8000 m
Núvols disperses a una alçada de 2000 ft
Núvols disperses a una alçada de 10000 ft

METAR: VOTP 080730Z 00000KT 8000 SCT020 SCT100 35/22 Q1008 NOSIG

Hora: 13:25 (07:55 UTC)

Pronòstic

L'informe es va fer fa 2 hores i 55 minuts, a les 05:00 UTC
Pronòstic vàlid del 08 a les 06 UTC al 08 a les 15 UTC
Vent 6 kt del Sud/Sud-Est
Visibilitat: 6000 m
Escasses núvols a una alçada de 2000 ft
Núvols disperses a una alçada de 10000 ft
Temporalment
l' 08 a les 09 UTC al 08 a les 15 UTC
Núvols disperses a una alçada de 1500 ft
Escasses núvols a una alçada de 3000 ft, Cumulus congestus.
Núvols disperses a una alçada de 10000 ft

TAF: VOTP 080500Z 0806/0815 15006KT 6000 FEW020 SCT100 TEMPO 0809/0815 SCT015 FEW030TCU SCT100

Observacions i pronòstics meteorològics de més de 4000 aeroports (METAR i TAF).

Les estacions disponibles són els punts grocs i vermells al mapa.

Posi el ratolí al punt desitjat per veure el nom de l'estació.

Feu clic per veure les observacions i els pronòstics meteorològics.

Per canviar el mapa: feu clic els botons verds amb una creu de color negre per apropar; al botó verd amb un guió per allunyar la imatge; o en les fletxes verdes per a mapes adjacents.


METAR-TAF: